English version (google)  Retour à l'accueil Ecrire à l'auteur du site Runraid : Michel Jourdan


 Visitez La Boutique 



Les prochaines courses


Les derniers résultats

cliquez pour visualiser la page complète relatant la chronologie des éruptions du Piton de la Fournaise
éruptions Piton de la Fournaise

Ile de La Réunion

 Diagonale des Fous 

Ecrire au créateur du site : Michel Jourdan
Contact


2023-04-23 - Championnat Régional Semi Marathon

Pour consulter le palmarès d'un coureur, cliquez sur son nom ;)

Vous avez des remarques, corrections, ... sur ces résultats , un clic sur --> pour me transmettre toute information concernant les classements


Championnat Régional Semi Marathon - 2023 : classement des 141 finishers
Place Nom Temps Cat. Club Sexe Clt/cat.
Place Nom Temps Cat. Club Sexe Clt/cat.
1 BELHADJ Mehdi 01:10:09 SEH M 70006
2 CADET JEAN MARIE 01:10:39 M2H AC ENTENTE M Champion 2023 53942
3 LE BARON LUC 01:10:39 U23H M 1 U23H 70008
4 BALZANET ULRIC 01:11:25 M1H COSPI M 1 M1H 53927
5 BARLIEU RONAN 01:11:31 SEH ACP M 2 SEH 53959
6 CASTEL LUC 01:14:24 M0H CSSDA M 1 M0H 53949
7 BOBATE RESHAD 01:15:02 M0H CSSDA M 2 M0H 53917
8 TRULES GERALDO 01:16:38 M1H ACSP M 2 M1H 53901
9 JASMIN LUDOVIC 01:17:13 M1H CAPP M 3 M1H 53951
10 PANIANDI Jerome 01:17:21 SEH CSSDA M 3 SEH 51903
11 BEGUE ALEXANDRE 01:17:33 M0H RUC M 3 M0H 53962
12 DAREL LUCIANO 01:17:40 M0H CAPOSS M 4 M0H 53961
13 RAMIN JEAN BERNARD 01:18:24 M3H AJ SALAZIE M 1 M3H 53984
14 PAYET ALEXANDRE 01:19:22 M0H CAPP M 5 M0H 1811
15 GIGAN JEAN MICHEL 01:19:36 M2H COSPI M 2 M2H 24694
16 PERRAULT Vincent 01:19:49 SEH AJ SALAZIE M 4 SEH 53925
17 FONTAINE JEREMY 01:20:19 SEH CAPP M 5 SEH 8686
18 RAJAT ALSON 01:20:40 M1H RCSD M 4 M1H 53970
19 LEBON DAMIEN 01:21:01 SEH ACSGS M 6 SEH 70003
20 LALLEMAND KEVIN 01:21:02 M1H CAPP M 5 M1H 3360
21 METRO EMMA 01:21:25 M0F COSPI F Championne 2023 53915
22 CADET WENDY GERARDO 01:21:45 M1H AC ENTENTE M 6 M1H 20063
23 DEVOUGE VICTORIA 01:23:12 SEF TPC F 2 F - 1 SEF 53981
24 SAUTRON Julien 01:23:20 M0H DENIV M 6 M0H 53912
25 DUReCHOU JULIEN 01:23:31 M0H M 7 M0H 60581
26 ERINACINT GEORGES MARIE 01:23:35 M2H CSSDA M 3 M2H 53914
27 BERRICHON FREDERIC GABRIEL 01:24:16 M2H CAPC M 4 M2H 53921
28 SAMUELSONN Julia 01:24:24 SEF F 3 F - 2 SEF 70007
29 HOARAU Denis 01:24:39 M1H ASAECB M 7 M1H 53908
30 AIMART Johny 01:24:48 M4H DENIV M 1 M4H 53919
31 CASTEL GEORGES 01:25:25 SEH CSSDA M 7 SEH 53965
32 GRONDIN STEPHANE 01:25:35 M0H CAPP M 8 M0H 41576
33 HARRISSON JULES JEAN PIERRE 01:25:42 M5H COSPI M 1 M5H 53992
34 MONDON JEAN FRANCOIS 01:26:37 M4H AC ENTENTE M 2 M4H 14425
35 KISHI ANTHONY 01:27:14 SEH AC ENTENTE M 8 SEH 53947
36 SORRES FREDERIC 01:27:16 M0H ACSGS M 9 M0H 53939
37 HOARAU PIERRE 01:27:17 SEH ACSGS M 9 SEH 53956
38 SEVAGAMY JOANN 01:27:18 M0H DA M 10 M0H 53954
39 GONTHIER DAVID 01:27:30 M0H CASL M 11 M0H 53904
40 MAILLOT WILLIAM 01:27:56 SEH DA M 10 SEH 53971
41 LALIRON CORENTIN 01:28:14 SEH CAPOSS M 11 SEH 53966
42 TONRU SYLVAIN 01:28:20 M1H AC ENTENTE M 8 M1H 33854
43 HAMILCARO WILLIAM 01:28:36 M1H CASL M 9 M1H 19219
44 SAMBENOUN MARCELIN 01:28:56 M5H TKCADP M 2 M5H 10706
45 PLANTE MARIE ANAIS 01:29:10 SEF STASA F 4 F - 3 SEF 3339
46 DALEAU XAVIER 01:29:13 SEH CAPP M 12 SEH 3688
47 CALPETARD JEAN FABRICE 01:29:13 M3H DA M 2 M3H 53902
48 MERCHER JHONNY 01:29:13 M1H CSSDA M 10 M1H 53932
49 DROZO YANNICK 01:29:23 M3H DA M 3 M3H 5480
50 LEBON DIMITRI 01:29:27 M0H ACSGS M 12 M0H 53958
51 CHIRON FRANCOIS 01:29:31 SEH M 13 SEH 70010
52 BOURG ABIGAEL 01:30:05 U23F RUC F 5 F - 1 U23F 53975
53 ODON ANTOINE 01:30:09 M3H BNA M 4 M3H 4034
54 Payet sebastien 01:30:15 M0H ATHLETIQUE M 13 M0H 60584
55 Payet Antoine 01:30:30 SEH ATHLETIQUE M 14 SEH 60583
56 ATIAMAN PATRICE 01:30:40 M2H COSPI M 5 M2H 44744
57 MACORAL Charles 01:31:05 M4H DENIV M 3 M4H 1226
58 HALE Charlotte 01:32:45 SEF ACBP F 6 F - 4 SEF 53943
59 FANCHIN MICKAEL 01:32:51 M1H CSSDA M 11 M1H 230
60 GIBRALTA CHARLES ALFRED 01:32:51 M3H CAPC M 5 M3H 6125
61 LESPORT ANGELIQUE 01:32:52 SEF CAPC F 7 F - 5 SEF 53936
62 VADIVELOU MARIE AUGUSTINE 01:33:02 M2F COSPI F 8 F - 1 M2F 9523
63 GABEL NATHANAEL 01:34:04 U23H CAPOSS M 2 U23H 53973
64 LECLAIR ANNE 01:34:05 M2F ASSLA F 9 F - 2 M2F 587
65 VELIO PATRICK 01:34:30 M4H ACSP M 4 M4H 53946
66 SMITH JOHANNA 01:34:30 M1F CASL F 10 F - 1 M1F 1256
67 HAMILCARO EVELYNE 01:35:04 M1F DA F 11 F - 2 M1F 19220
68 MAREUX EUGENIE 01:35:41 M0F CAPOSS F 12 F - 2 M0F 53903
69 DIJOUX JOHNNY 01:35:57 SEH DA M 15 SEH 24366
70 MADI BACAR HALBOU 01:37:02 M0H BNA M 14 M0H 53967
71 PAUSe Nicolas 01:37:16 M1H AJ SALAZIE M 12 M1H 10346
72 LEBRETON Carl 01:37:44 M2H DENIV M 6 M2H 23256
73 BIZZOTTO Fleur 01:37:59 SEF DENIV F 13 F - 6 SEF 53968
74 NEMORIN NICOLAS 01:38:11 M2H DENIV M 7 M2H 53920
75 LEBOUCHER JEAN SEBASTIEN 01:39:14 M2H AC ENTENTE M 8 M2H 7922
76 GUERIN Fabrice 01:39:16 M4H DA M 5 M4H 53938
77 FUMERY ALEXANDRE 01:39:27 M2H CASL M 9 M2H 53986
78 MULOT SEBASTIEN 01:39:34 U23H BNA M 3 U23H 53963
79 MAK YUEN VINCENT 01:40:11 M1H AC ST LEU M 13 M1H 2446
80 BITROU GAILLARD ANNE 01:40:18 M3F DENIV F 14 F - 1 M3F 53918
81 BEAL DAMIEN 01:40:25 M2H OUESTRAIL M 10 M2H 22123
82 PALAMA JEAN BAPTISTE 01:40:29 M3H CALS SUD M 6 M3H 53905
83 PROUD HOM JACQUES OLIVIER 01:40:31 M3H AC ENTENTE M 7 M3H 36983
84 HODGI CHANTAL 01:41:08 M4F AC ENTENTE F 15 F - 1 M4F 53957
85 GRONDIN PATRICK 01:41:21 M4H COSPI M 6 M4H 53952
86 BREUIL STELLIANE 01:41:21 M0F ACSP F 16 F - 3 M0F 21826
87 RAMIN TIROUMALLE JACKY 01:41:35 M4H SJ2T M 7 M4H 53935
88 SAUTRON FREDDY 01:41:38 M0H TCSA M 15 M0H 53941
89 HALICHE MALATI GERALDINE 01:43:06 M0F DA F 17 F - 4 M0F 53969
90 GRONDIN MATHIEU 01:43:20 SEH COSPI M 16 SEH 53964
91 SAUNIER MARIO 01:43:28 M3H TCSA M 8 M3H 27046
92 TAFFET DIMITRI 01:43:54 M1H BNA M 14 M1H 53987
93 ALAGAPIN PASCAL 01:44:22 M1H AC ENTENTE M 15 M1H 39889
94 GRONDIN Josiane 01:44:29 M4F SJ2T F 18 F - 2 M4F 53933
95 SERY MANUELLA 01:44:49 M1F DA F 19 F - 3 M1F 34928
96 CHAMAND ELVIS 01:45:06 M3H ASSLA M 9 M3H 53923
97 BEGUE RAPHAEL 01:46:07 M2H AC ENTENTE M 11 M2H 38425
98 ANGAMA MARIE DAISY 01:46:45 M3F CTBP F 20 F - 2 M3F 7599
99 MARCHETTI PASCAL 01:46:49 M5H DENIV M 3 M5H 1721
100 NAYAGOM GILBERT 01:49:01 M4H CALS SUD M 8 M4H 53929
101 GORAGUER YANNICK 01:49:05 M6H BNA M 1 M6H 53955
102 NEGOUAI CECILE 01:49:16 M2F CALS SUD F 21 F - 3 M2F 53931
103 JACQUENET JOHN 01:49:16 M2H CALS SUD M 12 M2H 4581
104 DURAND ISABELLE 01:49:41 M2F BNA F 22 F - 4 M2F 5012
105 RELIQUE JEREMY 01:49:58 SEH CAPC M 17 SEH 53899
106 PRIANON DANIEL 01:50:41 M4H AC ENTENTE M 9 M4H 1901
107 SMILOVICI LAFABRIE JULIE 01:51:12 M2F AC ST LEU F 23 F - 5 M2F 28832
108 TIFEST SAMIA 01:51:58 M4F COSPI F 24 F - 3 M4F 14530
109 MARDEMOUTOU JEAN PIERRE 01:52:19 M5H CAPC M 4 M5H 24433
110 PATOUPARVEDY OLIVIER 01:52:24 SEH ACSGS M 18 SEH 70004
111 GALLARDO JOEL 01:52:33 M3H DSA M 10 M3H 53907
112 SAINT LEGER JEROME 01:52:36 M2H CASL M 13 M2H 53976
113 REVAUGER GUILENE 01:52:48 M0F CAPOSS F 25 F - 5 M0F 38652
114 MORILHAT MURIEL 01:52:56 M3F BNA F 26 F - 3 M3F 23463
115 TAOCALI MAX 01:53:16 M2H CAPC M 14 M2H 53906
116 RANGUIN JOHVANA 01:53:30 M1F TCSA F 27 F - 4 M1F 53953
117 CABEU JOHNNY 01:54:12 M4H COSPI M 10 M4H 53948
118 DULAU VIOLAINE 01:54:54 M2F BNA F 28 F - 6 M2F 53910
119 Hoarau pascal 01:55:20 M3H ATHLETIQUE M 11 M3H 60585
120 LABBE Pascal 01:55:27 M5H DENIV M 5 M5H 53909
121 CORDON MAX 01:55:50 M5H AC ENTENTE M 6 M5H 3434
122 GRONDIN JEAN LUC 01:56:03 M5H AC ENTENTE M 7 M5H 6293
123 LAI CHEUNG KIT PHILIPPE 01:56:11 M7H CAPC M 1 M7H 53990
124 GEORGIOU LISE 01:57:02 SEF RCSD F 29 F - 7 SEF 41691
125 CAPOUNDA JEAN RAPHAEL 01:57:03 M0H ACSGS M 16 M0H 53988
126 BERTIN ROMAIN 01:57:05 SEH RCSD M 19 SEH 41718
127 CHANE SEE CHU MARLENE 01:57:33 M7F CAPC F 30 F - 1 M7F 53960
128 COUPAYE JACKSON 01:57:33 M2H CAPC M 15 M2H 53989
129 LHERM DIDIER 01:58:37 M4H DA M 11 M4H 53983
130 GRIMOIRE Jean Michel 01:59:47 M4H CAPOSS M 12 M4H 4289
131 HOAREAU HENRI 02:00:35 M5H CAPC M 8 M5H 11425
132 COCAUD HERVE 02:01:06 M2H ACSP M 16 M2H 53911
133 LE GARREC THEO 02:01:41 SEH RCSD M 20 SEH 47133
134 HOARAU SARA 02:02:37 M4F DSA F 31 F - 4 M4F 41590
135 VIDOT SABRINA 02:02:59 M2F ACVSS F 32 F - 7 M2F 22100
136 FONTAINE CHRISTIANE 02:03:17 M4F BNA F 33 F - 5 M4F 86
137 RANGAMA CHARLEMAGNE 02:07:58 M7H CALS SUD M 2 M7H 53944
138 HO YEN JEAN PIERRE 02:13:45 M5H AC ENTENTE M 9 M5H 53945
139 MORILHAT FABRICE 02:14:36 M3H BNA M 12 M3H 19103
140 CLAIN JEAN NOEL GILBERT 02:15:03 M4H CALS SUD M 13 M4H 51904
141 DEBRAY GABRIEL 02:21:48 M3H CASP M 13 M3H 53926


ReferencementCe site est listé dans la catégorie Sport : Sports extrêmes Dictionnaire
| Accueil | La Réunion  Vue du ciel | Météo | Cyclones | Volcan | Cirques de Mafate , Cilaos , Salazie | Photos Randonnées | Randonnées Réunion | Courses Trails | Diagonale des Fous | Marathon des Sables | Voyages | Stats du site | Fonds écran | Plan du site | Blog de runraid | Galerie photos Sport |